createdAt,value
2023-05-22T00:00:01.813Z,74.53
2023-05-22T00:01:01.777Z,74.58
2023-05-22T00:02:01.846Z,74.36
2023-05-22T00:03:01.834Z,74.18
2023-05-22T00:04:01.733Z,74.07
2023-05-22T00:05:01.749Z,74.09
2023-05-22T00:06:01.709Z,74.12
2023-05-22T00:07:01.713Z,74.12
2023-05-22T00:08:01.719Z,73.99
2023-05-22T00:09:01.689Z,73.92
2023-05-22T00:10:01.727Z,73.77
2023-05-22T00:11:02.219Z,73.71
2023-05-22T00:12:01.640Z,73.96
2023-05-22T00:13:01.604Z,73.96
2023-05-22T00:14:01.593Z,74.00
2023-05-22T00:15:01.600Z,73.94
2023-05-22T00:16:01.578Z,73.93
2023-05-22T00:17:01.649Z,73.90
2023-05-22T00:18:01.586Z,74.00
2023-05-22T00:19:01.632Z,73.94
2023-05-22T00:20:01.541Z,74.08
2023-05-22T00:21:01.514Z,74.20
2023-05-22T00:22:01.519Z,74.52
2023-05-22T00:23:01.489Z,74.42
2023-05-22T00:24:01.463Z,74.45
2023-05-22T00:25:01.477Z,74.66
2023-05-22T00:26:01.462Z,74.67
2023-05-22T00:27:01.422Z,74.67
2023-05-22T00:28:01.408Z,74.59
2023-05-22T00:29:01.413Z,74.69
2023-05-22T00:30:01.743Z,74.71
2023-05-22T00:31:01.406Z,74.79
2023-05-22T00:32:01.512Z,75.05
2023-05-22T00:33:01.379Z,75.55
2023-05-22T00:34:01.388Z,75.73
2023-05-22T00:35:01.331Z,75.76
2023-05-22T00:36:01.308Z,75.91
2023-05-22T00:37:01.301Z,75.87
2023-05-22T00:38:01.304Z,75.92
2023-05-22T00:39:01.278Z,76.14
2023-05-22T00:40:01.276Z,76.34
2023-05-22T00:41:01.248Z,76.34
2023-05-22T00:42:01.235Z,76.57
2023-05-22T00:43:01.250Z,76.60
2023-05-22T00:44:01.211Z,76.52
2023-05-22T00:45:01.202Z,76.44
2023-05-22T00:46:01.187Z,76.59
2023-05-22T00:47:01.289Z,76.66
2023-05-22T00:48:01.177Z,76.87
2023-05-22T00:49:01.166Z,77.04
2023-05-22T00:50:01.169Z,77.01
2023-05-22T00:51:01.119Z,77.19
2023-05-22T00:52:01.125Z,77.10
2023-05-22T00:53:01.089Z,77.09
2023-05-22T00:54:01.084Z,76.98
2023-05-22T00:55:01.089Z,77.22
2023-05-22T00:56:01.050Z,77.32
2023-05-22T00:57:01.059Z,77.37
2023-05-22T00:58:01.021Z,77.56
2023-05-22T00:59:01.026Z,78.43
2023-05-22T01:00:01.010Z,79.09
2023-05-22T01:01:01.011Z,79.48
2023-05-22T01:02:01.010Z,79.91
2023-05-22T01:03:01.034Z,80.30
2023-05-22T01:04:01.101Z,80.70
2023-05-22T01:05:00.935Z,80.99
2023-05-22T01:06:00.918Z,81.28
2023-05-22T01:07:00.943Z,81.23
2023-05-22T01:08:00.896Z,81.09
2023-05-22T01:09:00.894Z,80.96
2023-05-22T01:10:00.871Z,80.77
2023-05-22T01:11:00.858Z,80.89
2023-05-22T01:12:00.873Z,80.76
2023-05-22T01:13:00.907Z,80.65
2023-05-22T01:14:00.818Z,80.64
2023-05-22T01:15:00.815Z,81.06
2023-05-22T01:16:00.836Z,81.27
2023-05-22T01:17:00.772Z,81.54
2023-05-22T01:18:00.814Z,81.66
2023-05-22T01:19:00.773Z,81.72
2023-05-22T01:20:00.742Z,81.99
2023-05-22T01:21:00.719Z,82.22
2023-05-22T01:22:00.724Z,82.40
2023-05-22T01:23:00.706Z,82.62
2023-05-22T01:24:00.679Z,82.85
2023-05-22T01:25:00.711Z,83.25
2023-05-22T01:26:00.658Z,83.47
2023-05-22T01:27:00.648Z,83.59
2023-05-22T01:28:00.641Z,83.61
2023-05-22T01:29:00.624Z,83.79
2023-05-22T01:30:00.619Z,84.15
2023-05-22T01:31:00.590Z,84.32
2023-05-22T01:32:00.582Z,84.48
2023-05-22T01:33:00.630Z,84.53
2023-05-22T01:34:00.667Z,84.68
2023-05-22T01:35:00.542Z,84.75
2023-05-22T01:36:00.552Z,84.79
2023-05-22T01:37:00.525Z,84.71
2023-05-22T01:38:00.519Z,85.07
2023-05-22T01:39:00.498Z,85.19
2023-05-22T01:40:00.501Z,85.26
2023-05-22T01:41:00.469Z,85.33
2023-05-22T01:42:00.468Z,85.38
2023-05-22T01:43:00.441Z,85.48
2023-05-22T01:44:00.433Z,85.32
2023-05-22T01:45:00.412Z,85.32
2023-05-22T01:46:00.479Z,85.20
2023-05-22T01:47:00.406Z,85.07
2023-05-22T01:48:00.449Z,84.90
2023-05-22T01:49:00.375Z,84.62
2023-05-22T01:50:00.360Z,84.47
2023-05-22T01:51:00.351Z,84.32
2023-05-22T01:52:00.332Z,84.20
2023-05-22T01:53:00.316Z,84.15
2023-05-22T01:54:00.404Z,84.10
2023-05-22T01:55:00.281Z,84.14
2023-05-22T01:56:00.302Z,83.99
2023-05-22T01:57:00.266Z,83.93
2023-05-22T01:58:00.257Z,83.99
2023-05-22T01:59:00.235Z,84.08
2023-05-22T02:00:00.244Z,84.23
2023-05-22T02:01:00.873Z,84.36
2023-05-22T02:02:00.276Z,84.44
2023-05-22T02:03:00.385Z,84.60
2023-05-22T02:04:00.243Z,84.77
2023-05-22T02:05:00.204Z,84.95
2023-05-22T02:06:00.210Z,85.06
2023-05-22T02:07:00.137Z,84.93
2023-05-22T02:08:00.132Z,85.29
2023-05-22T02:09:00.126Z,85.70
2023-05-22T02:10:00.143Z,86.01
2023-05-22T02:11:00.072Z,86.49
2023-05-22T02:12:00.121Z,86.61
2023-05-22T02:13:00.085Z,86.62
2023-05-22T02:14:00.054Z,86.41
2023-05-22T02:15:00.029Z,86.27
2023-05-22T02:16:00.096Z,85.91
2023-05-22T02:17:00.003Z,85.68
2023-05-22T02:18:00.067Z,85.41
2023-05-22T02:19:00.033Z,85.34
2023-05-22T02:19:59.962Z,85.74
2023-05-22T02:20:59.946Z,86.20
2023-05-22T02:21:59.940Z,86.61
2023-05-22T02:22:59.961Z,87.03
2023-05-22T02:23:59.926Z,87.19
2023-05-22T02:24:59.904Z,87.38
2023-05-22T02:25:59.900Z,87.61
2023-05-22T02:26:59.875Z,87.67
2023-05-22T02:27:59.852Z,87.79
2023-05-22T02:28:59.892Z,87.75
2023-05-22T02:29:59.835Z,87.92
2023-05-22T02:30:59.856Z,87.94
2023-05-22T02:31:59.833Z,88.05
2023-05-22T02:32:59.851Z,88.21
2023-05-22T02:33:59.787Z,88.44
2023-05-22T02:34:59.804Z,88.53
2023-05-22T02:35:59.778Z,88.94
2023-05-22T02:36:59.734Z,89.40
2023-05-22T02:37:59.728Z,89.56
2023-05-22T02:38:59.727Z,89.76
2023-05-22T02:39:59.712Z,89.81
2023-05-22T02:40:59.711Z,89.86
2023-05-22T02:41:59.681Z,90.21
2023-05-22T02:42:59.689Z,90.52
2023-05-22T02:43:59.645Z,90.77
2023-05-22T02:44:59.662Z,91.02
2023-05-22T02:45:59.632Z,91.16
2023-05-22T02:46:59.777Z,91.13
2023-05-22T02:47:59.618Z,91.31
2023-05-22T02:48:59.581Z,91.53
2023-05-22T02:49:59.583Z,91.63
2023-05-22T02:50:59.555Z,91.78
2023-05-22T02:51:59.571Z,91.70
2023-05-22T02:52:59.539Z,91.69
2023-05-22T02:53:59.565Z,91.67
2023-05-22T02:54:59.505Z,91.62
2023-05-22T02:55:59.511Z,91.39
2023-05-22T02:56:59.526Z,91.33
2023-05-22T02:57:59.488Z,91.35
2023-05-22T02:58:59.465Z,91.17
2023-05-22T02:59:59.454Z,91.31
2023-05-22T03:00:59.441Z,91.24
2023-05-22T03:01:59.475Z,92.24
2023-05-22T03:02:59.548Z,92.53
2023-05-22T03:03:59.414Z,92.51
2023-05-22T03:04:59.377Z,92.90
2023-05-22T03:05:59.367Z,93.13
2023-05-22T03:06:59.355Z,93.39
2023-05-22T03:07:59.334Z,93.58
2023-05-22T03:08:59.348Z,93.86
2023-05-22T03:09:59.303Z,94.27
2023-05-22T03:10:59.307Z,94.49
2023-05-22T03:11:59.295Z,94.48
2023-05-22T03:12:59.289Z,94.50
2023-05-22T03:13:59.294Z,94.42
2023-05-22T03:14:59.316Z,94.31
2023-05-22T03:15:59.249Z,94.14
2023-05-22T03:16:59.219Z,94.01
2023-05-22T03:17:59.267Z,94.03
2023-05-22T03:18:59.212Z,94.09
2023-05-22T03:19:59.185Z,94.24
2023-05-22T03:20:59.186Z,94.32
2023-05-22T03:21:59.182Z,94.40
2023-05-22T03:22:59.179Z,94.59
2023-05-22T03:23:59.162Z,94.64
2023-05-22T03:24:59.142Z,94.86
2023-05-22T03:25:59.100Z,95.14
2023-05-22T03:26:59.124Z,95.34
2023-05-22T03:27:59.092Z,95.46
2023-05-22T03:28:59.132Z,95.50
2023-05-22T03:29:59.086Z,95.56
2023-05-22T03:30:59.046Z,95.58
2023-05-22T03:31:59.049Z,95.59
2023-05-22T03:32:59.061Z,95.51
2023-05-22T03:33:59.032Z,95.49
2023-05-22T03:34:59.012Z,95.44
2023-05-22T03:35:58.982Z,95.32
2023-05-22T03:36:58.974Z,95.23
2023-05-22T03:37:58.976Z,95.28
2023-05-22T03:38:58.954Z,95.51
2023-05-22T03:39:58.975Z,95.52
2023-05-22T03:40:58.917Z,95.54
2023-05-22T03:41:58.912Z,95.59
2023-05-22T03:42:58.900Z,95.60
2023-05-22T03:43:58.914Z,95.54
2023-05-22T03:44:58.864Z,95.52
2023-05-22T03:45:58.898Z,95.50
2023-05-22T03:46:58.866Z,95.58
2023-05-22T03:47:58.830Z,95.58
2023-05-22T03:48:58.844Z,95.71
2023-05-22T03:49:58.796Z,95.95
2023-05-22T03:50:58.779Z,96.16
2023-05-22T03:51:58.785Z,96.26
2023-05-22T03:52:58.777Z,96.29
2023-05-22T03:53:58.766Z,96.45
2023-05-22T03:54:58.729Z,96.47
2023-05-22T03:55:58.720Z,96.54
2023-05-22T03:56:58.719Z,96.55
2023-05-22T03:57:58.684Z,96.43
2023-05-22T03:58:58.683Z,96.51
2023-05-22T03:59:58.692Z,96.51
2023-05-22T04:00:58.715Z,96.49
2023-05-22T04:01:58.668Z,96.56
2023-05-22T04:02:58.968Z,96.51
2023-05-22T04:03:58.609Z,96.65
2023-05-22T04:04:58.649Z,96.74
2023-05-22T04:05:58.598Z,96.76
2023-05-22T04:06:58.574Z,96.85
2023-05-22T04:07:58.573Z,96.82
2023-05-22T04:08:58.563Z,96.76
2023-05-22T04:09:58.538Z,96.62
2023-05-22T04:10:58.536Z,96.39
2023-05-22T04:11:58.507Z,96.14
2023-05-22T04:12:58.502Z,95.91
2023-05-22T04:13:58.495Z,95.71
2023-05-22T04:14:58.487Z,95.48
2023-05-22T04:15:58.505Z,95.18
2023-05-22T04:16:58.493Z,94.87
2023-05-22T04:17:58.464Z,94.62
2023-05-22T04:18:58.445Z,94.44
2023-05-22T04:19:58.424Z,94.29
2023-05-22T04:20:58.399Z,94.20
2023-05-22T04:21:58.398Z,94.11
2023-05-22T04:22:58.396Z,93.96
2023-05-22T04:23:58.351Z,93.77
2023-05-22T04:24:58.375Z,93.69
2023-05-22T04:25:58.319Z,93.56
2023-05-22T04:26:58.325Z,93.45
2023-05-22T04:27:58.299Z,93.34
2023-05-22T04:28:58.327Z,93.18
2023-05-22T04:29:58.284Z,92.95
2023-05-22T04:30:58.280Z,92.84
2023-05-22T04:31:58.266Z,92.69
2023-05-22T04:32:58.256Z,92.58
2023-05-22T04:33:58.289Z,92.47
2023-05-22T04:34:58.272Z,92.48
2023-05-22T04:35:58.200Z,92.49
2023-05-22T04:36:58.178Z,92.52
2023-05-22T04:37:58.187Z,92.40
2023-05-22T04:38:58.157Z,92.29
2023-05-22T04:39:58.179Z,92.16
2023-05-22T04:40:58.172Z,91.88
2023-05-22T04:41:58.139Z,91.78
2023-05-22T04:42:58.115Z,91.41
2023-05-22T04:43:58.167Z,91.20
2023-05-22T04:44:58.125Z,91.10
2023-05-22T04:45:58.077Z,90.96
2023-05-22T04:46:58.148Z,90.78
2023-05-22T04:47:58.060Z,90.56
2023-05-22T04:48:58.054Z,90.30
2023-05-22T04:49:58.010Z,90.14
2023-05-22T04:50:58.008Z,89.87
2023-05-22T04:51:58.012Z,89.77
2023-05-22T04:52:57.984Z,89.65
2023-05-22T04:53:57.997Z,89.39
2023-05-22T04:54:59.944Z,89.15
2023-05-22T04:55:57.959Z,88.98
2023-05-22T04:56:57.929Z,88.48
2023-05-22T04:57:57.933Z,88.20
2023-05-22T04:58:57.906Z,87.77
2023-05-22T04:59:57.918Z,87.47
2023-05-22T05:00:57.906Z,87.51
2023-05-22T05:01:57.860Z,87.24
2023-05-22T05:02:57.988Z,87.06
2023-05-22T05:03:57.897Z,87.12
2023-05-22T05:04:57.835Z,86.93
2023-05-22T05:05:57.814Z,86.84
2023-05-22T05:06:57.794Z,86.66
2023-05-22T05:07:57.788Z,86.23
2023-05-22T05:08:57.785Z,86.20
2023-05-22T05:09:57.759Z,86.09
2023-05-22T05:10:57.766Z,86.20
2023-05-22T05:11:57.729Z,85.91
2023-05-22T05:12:57.749Z,85.99
2023-05-22T05:13:57.708Z,85.88
2023-05-22T05:14:57.709Z,85.98
2023-05-22T05:15:57.677Z,86.12
2023-05-22T05:16:57.694Z,86.05
2023-05-22T05:17:57.677Z,85.61
2023-05-22T05:18:57.660Z,85.74
2023-05-22T05:19:57.619Z,85.72
2023-05-22T05:20:57.610Z,85.78
2023-05-22T05:21:57.610Z,85.71
2023-05-22T05:22:57.609Z,85.71
2023-05-22T05:23:57.587Z,85.64
2023-05-22T05:24:57.562Z,85.64
2023-05-22T05:25:57.564Z,85.75
2023-05-22T05:26:57.547Z,85.64
2023-05-22T05:27:57.572Z,85.72
2023-05-22T05:28:57.578Z,85.65
2023-05-22T05:29:57.523Z,85.73
2023-05-22T05:30:57.479Z,85.71
2023-05-22T05:31:57.520Z,85.64
2023-05-22T05:32:57.532Z,85.61
2023-05-22T05:33:57.444Z,85.40
2023-05-22T05:34:57.451Z,85.43
2023-05-22T05:35:57.423Z,85.47
2023-05-22T05:36:57.498Z,85.38
2023-05-22T05:37:57.387Z,85.00
2023-05-22T05:38:57.390Z,84.96
2023-05-22T05:39:57.455Z,85.03
2023-05-22T05:40:57.370Z,84.76
2023-05-22T05:41:57.344Z,84.90
2023-05-22T05:42:57.347Z,85.00
2023-05-22T05:43:57.332Z,85.15
2023-05-22T05:44:57.298Z,85.00
2023-05-22T05:45:57.345Z,85.15
2023-05-22T05:46:57.301Z,85.27
2023-05-22T05:47:57.273Z,85.31
2023-05-22T05:48:57.259Z,85.31
2023-05-22T05:49:57.241Z,85.06
2023-05-22T05:50:57.263Z,84.85
2023-05-22T05:51:57.230Z,84.80
2023-05-22T05:52:57.210Z,84.77
2023-05-22T05:53:57.204Z,84.91
2023-05-22T05:54:57.232Z,84.79
2023-05-22T05:55:57.161Z,84.72
2023-05-22T05:56:57.178Z,84.79
2023-05-22T05:57:57.140Z,84.68
2023-05-22T05:58:57.144Z,84.79
2023-05-22T05:59:57.115Z,84.69
2023-05-22T06:00:57.101Z,84.70
2023-05-22T06:01:57.075Z,84.41
2023-05-22T06:02:57.144Z,84.19
2023-05-22T06:03:57.120Z,84.34
2023-05-22T06:04:57.043Z,84.19
2023-05-22T06:05:57.085Z,83.96
2023-05-22T06:06:57.024Z,84.16
2023-05-22T06:07:57.024Z,83.82
2023-05-22T06:08:56.995Z,83.76
2023-05-22T06:09:56.982Z,83.68
2023-05-22T06:10:56.969Z,83.60
2023-05-22T06:11:56.954Z,83.78
2023-05-22T06:12:56.984Z,83.68
2023-05-22T06:13:56.939Z,83.16
2023-05-22T06:14:56.926Z,83.62
2023-05-22T06:15:59.557Z,83.98
2023-05-22T06:16:56.928Z,83.91
2023-05-22T06:17:56.936Z,83.88
2023-05-22T06:18:56.911Z,83.93
2023-05-22T06:19:56.853Z,84.06
2023-05-22T06:20:56.850Z,84.11
2023-05-22T06:21:56.832Z,84.09
2023-05-22T06:22:56.821Z,84.33
2023-05-22T06:23:56.837Z,84.73
2023-05-22T06:24:56.784Z,84.89
2023-05-22T06:25:56.764Z,84.93
2023-05-22T06:26:56.759Z,84.82
2023-05-22T06:27:56.756Z,84.78
2023-05-22T06:28:56.743Z,85.00
2023-05-22T06:29:56.754Z,84.88
2023-05-22T06:30:56.745Z,84.51
2023-05-22T06:31:56.742Z,84.46
2023-05-22T06:32:56.725Z,84.25
2023-05-22T06:33:56.725Z,84.18
2023-05-22T06:34:56.676Z,83.94
2023-05-22T06:35:56.641Z,83.99
2023-05-22T06:36:56.639Z,83.73
2023-05-22T06:37:56.619Z,83.32
2023-05-22T06:38:56.619Z,82.45
2023-05-22T06:39:56.594Z,82.05
2023-05-22T06:40:56.615Z,81.83
2023-05-22T06:41:56.567Z,81.68
2023-05-22T06:42:56.587Z,81.89
2023-05-22T06:43:56.546Z,81.10
2023-05-22T06:44:56.529Z,80.55
2023-05-22T06:45:56.545Z,81.05
2023-05-22T06:46:56.535Z,81.42
2023-05-22T06:47:56.503Z,81.63
2023-05-22T06:48:56.483Z,82.00
2023-05-22T06:49:56.469Z,80.99
2023-05-22T06:50:56.484Z,79.64
2023-05-22T06:51:56.437Z,79.90
2023-05-22T06:52:56.438Z,79.81
2023-05-22T06:53:56.446Z,78.79
2023-05-22T06:54:56.411Z,78.24
2023-05-22T06:55:56.390Z,77.56
2023-05-22T06:56:56.367Z,76.34
2023-05-22T06:57:56.354Z,75.89
2023-05-22T06:58:56.370Z,76.54
2023-05-22T06:59:56.348Z,75.91
2023-05-22T07:00:56.418Z,75.02
2023-05-22T07:01:56.323Z,73.81
2023-05-22T07:02:56.378Z,72.55
2023-05-22T07:03:56.301Z,73.42
2023-05-22T07:04:56.280Z,72.19
2023-05-22T07:05:56.319Z,71.74
2023-05-22T07:06:56.253Z,72.33
2023-05-22T07:07:56.238Z,71.19
2023-05-22T07:08:56.252Z,72.35
2023-05-22T07:09:56.211Z,72.99
2023-05-22T07:10:56.210Z,73.06
2023-05-22T07:11:56.176Z,73.05
2023-05-22T07:12:56.166Z,73.74
2023-05-22T07:13:56.158Z,74.56
2023-05-22T07:14:56.163Z,75.15
2023-05-22T07:15:56.146Z,74.41
2023-05-22T07:16:56.171Z,74.52
2023-05-22T07:17:56.134Z,75.18
2023-05-22T07:18:56.132Z,75.37
2023-05-22T07:19:56.110Z,75.22
2023-05-22T07:20:56.074Z,75.36
2023-05-22T07:21:56.068Z,74.07
2023-05-22T07:22:56.049Z,73.60
2023-05-22T07:23:56.051Z,71.16
2023-05-22T07:24:56.027Z,72.66
2023-05-22T07:25:56.043Z,72.98
2023-05-22T07:26:56.007Z,73.18
2023-05-22T07:27:55.977Z,72.99
2023-05-22T07:28:55.970Z,72.95
2023-05-22T07:29:55.989Z,72.02
2023-05-22T07:30:55.951Z,72.47
2023-05-22T07:31:56.046Z,72.50
2023-05-22T07:32:56.027Z,73.20
2023-05-22T07:33:55.914Z,72.79
2023-05-22T07:34:55.968Z,72.77
2023-05-22T07:35:55.902Z,72.24
2023-05-22T07:36:55.870Z,72.89
2023-05-22T07:37:55.876Z,72.88
2023-05-22T07:38:55.851Z,73.33
2023-05-22T07:39:55.828Z,73.85
2023-05-22T07:40:55.829Z,72.84
2023-05-22T07:41:57.221Z,73.64
2023-05-22T07:42:55.825Z,74.00
2023-05-22T07:43:55.786Z,74.09
2023-05-22T07:44:55.775Z,73.88
2023-05-22T07:45:55.791Z,73.87
2023-05-22T07:46:55.781Z,73.41
2023-05-22T07:47:56.505Z,73.78
2023-05-22T07:48:55.744Z,73.62
2023-05-22T07:49:55.708Z,73.86
2023-05-22T07:50:55.727Z,73.52
2023-05-22T07:51:55.694Z,73.31
2023-05-22T07:52:55.666Z,72.80
2023-05-22T07:53:55.676Z,73.26
2023-05-22T07:54:55.672Z,73.51
2023-05-22T07:55:55.629Z,72.19
2023-05-22T07:56:55.627Z,71.41
2023-05-22T07:57:55.612Z,70.85
2023-05-22T07:58:55.619Z,70.41
2023-05-22T07:59:55.595Z,69.76
2023-05-22T08:00:55.601Z,69.87
2023-05-22T08:01:57.933Z,69.97
2023-05-22T08:02:55.625Z,68.85
2023-05-22T08:03:55.792Z,68.41
2023-05-22T08:04:55.532Z,68.95
2023-05-22T08:05:55.500Z,68.89
2023-05-22T08:06:55.502Z,68.59
2023-05-22T08:07:55.471Z,67.97
2023-05-22T08:08:55.471Z,67.71
2023-05-22T08:09:55.456Z,67.50
2023-05-22T08:11:04.140Z,67.34
2023-05-22T08:11:55.467Z,67.77
2023-05-22T08:12:55.423Z,67.03
2023-05-22T08:13:55.403Z,66.88
2023-05-22T08:14:55.388Z,65.17
2023-05-22T08:16:00.602Z,64.03
2023-05-22T08:16:55.416Z,62.88
2023-05-22T08:17:55.433Z,61.75
2023-05-22T08:18:55.388Z,60.35
2023-05-22T08:19:55.400Z,57.76
2023-05-22T08:20:55.343Z,55.39
2023-05-22T08:21:55.318Z,55.60
2023-05-22T08:22:56.204Z,55.52
2023-05-22T08:23:55.312Z,56.42
2023-05-22T08:24:55.277Z,56.57
2023-05-22T08:25:55.284Z,55.60
2023-05-22T08:26:55.272Z,54.63
2023-05-22T08:27:55.257Z,53.65
2023-05-22T08:28:55.273Z,51.76
2023-05-22T08:29:55.266Z,51.19
2023-05-22T08:30:55.241Z,50.56
2023-05-22T08:31:55.223Z,48.85
2023-05-22T08:32:55.274Z,48.68
2023-05-22T08:33:55.216Z,48.45
2023-05-22T08:34:55.256Z,48.04
2023-05-22T08:35:55.218Z,47.34
2023-05-22T08:36:55.216Z,49.06
2023-05-22T08:37:55.166Z,51.98
2023-05-22T08:38:55.180Z,53.85
2023-05-22T08:39:55.166Z,54.65
2023-05-22T08:40:55.176Z,54.82
2023-05-22T08:41:55.158Z,53.32
2023-05-22T08:42:55.160Z,51.33
2023-05-22T08:43:55.109Z,50.42
2023-05-22T08:44:55.170Z,49.22
2023-05-22T08:45:55.111Z,47.05
2023-05-22T08:46:55.127Z,46.04
2023-05-22T08:47:55.143Z,45.88
2023-05-22T08:48:55.100Z,45.91
2023-05-22T08:49:55.076Z,44.52
2023-05-22T08:50:55.037Z,44.59
2023-05-22T08:51:55.093Z,43.59
2023-05-22T08:52:55.031Z,45.82
2023-05-22T08:53:55.073Z,46.11
2023-05-22T08:54:55.023Z,46.05
2023-05-22T08:55:55.022Z,45.99
2023-05-22T08:56:57.113Z,45.99
2023-05-22T08:57:55.042Z,46.75
2023-05-22T08:58:54.978Z,45.00
2023-05-22T08:59:55.006Z,43.12
2023-05-22T09:00:55.056Z,42.76
2023-05-22T09:01:54.970Z,43.86
2023-05-22T09:02:55.027Z,45.15
2023-05-22T09:03:54.980Z,45.72
2023-05-22T09:04:54.938Z,46.56
2023-05-22T09:05:54.943Z,49.43
2023-05-22T09:06:54.951Z,49.86
2023-05-22T09:07:56.613Z,48.55
2023-05-22T09:08:54.911Z,48.04
2023-05-22T09:09:54.903Z,44.35
2023-05-22T09:10:54.897Z,42.24
2023-05-22T09:11:54.931Z,42.20
2023-05-22T09:12:54.916Z,41.70
2023-05-22T09:13:54.869Z,42.52
2023-05-22T09:14:55.353Z,41.76
2023-05-22T09:15:54.896Z,41.61
2023-05-22T09:16:54.905Z,42.85
2023-05-22T09:17:54.851Z,42.91
2023-05-22T09:18:54.866Z,43.60
2023-05-22T09:19:54.821Z,44.01
2023-05-22T09:20:54.813Z,43.85
2023-05-22T09:21:54.827Z,43.09
2023-05-22T09:22:54.825Z,42.62
2023-05-22T09:23:54.794Z,44.64
2023-05-22T09:24:54.807Z,42.38
2023-05-22T09:25:54.779Z,41.21
2023-05-22T09:26:54.776Z,42.72
2023-05-22T09:27:54.816Z,42.62
2023-05-22T09:28:54.764Z,43.57
2023-05-22T09:29:54.761Z,43.29
2023-05-22T09:30:54.836Z,43.19
2023-05-22T09:31:54.790Z,43.70
2023-05-22T09:32:54.766Z,43.63
2023-05-22T09:33:54.773Z,43.76
2023-05-22T09:34:54.707Z,44.77
2023-05-22T09:35:54.697Z,44.93
2023-05-22T09:36:54.713Z,44.11
2023-05-22T09:37:54.695Z,42.24
2023-05-22T09:38:54.710Z,43.08
2023-05-22T09:39:54.688Z,42.35
2023-05-22T09:40:54.668Z,42.91
2023-05-22T09:41:54.658Z,41.69
2023-05-22T09:42:54.663Z,41.25
2023-05-22T09:43:54.646Z,39.19
2023-05-22T09:44:54.653Z,42.13
2023-05-22T09:45:54.658Z,42.05
2023-05-22T09:46:54.666Z,41.25
2023-05-22T09:47:54.727Z,40.53
2023-05-22T09:48:54.626Z,39.21
2023-05-22T09:49:54.614Z,40.68
2023-05-22T09:50:54.586Z,42.66
2023-05-22T09:51:54.578Z,42.28
2023-05-22T09:52:54.618Z,41.97
2023-05-22T09:53:54.579Z,39.95
2023-05-22T09:54:54.587Z,40.37
2023-05-22T09:55:54.575Z,38.15
2023-05-22T09:56:54.547Z,38.54
2023-05-22T09:57:54.554Z,37.61
2023-05-22T09:58:54.531Z,38.85
2023-05-22T09:59:54.651Z,39.28
2023-05-22T10:00:54.563Z,39.09
2023-05-22T10:01:54.616Z,40.61
2023-05-22T10:02:54.554Z,40.79
2023-05-22T10:03:54.594Z,39.98
2023-05-22T10:04:54.579Z,40.00
2023-05-22T10:05:54.505Z,39.06
2023-05-22T10:06:54.498Z,39.74
2023-05-22T10:07:54.455Z,40.31
2023-05-22T10:08:54.483Z,39.34
2023-05-22T10:09:54.492Z,39.27
2023-05-22T10:10:54.465Z,39.59
2023-05-22T10:11:54.431Z,40.20
2023-05-22T10:12:54.449Z,40.87
2023-05-22T10:13:54.419Z,40.91
2023-05-22T10:14:54.408Z,38.01
2023-05-22T10:15:54.441Z,38.42
2023-05-22T10:16:54.424Z,39.84
2023-05-22T10:17:54.397Z,39.45
2023-05-22T10:18:54.452Z,39.21
2023-05-22T10:19:54.363Z,39.18
2023-05-22T10:20:54.366Z,35.96
2023-05-22T10:21:54.385Z,35.33
2023-05-22T10:22:54.363Z,35.60
2023-05-22T10:23:54.348Z,37.68
2023-05-22T10:24:54.361Z,39.33
2023-05-22T10:25:54.319Z,36.89
2023-05-22T10:26:54.314Z,34.44
2023-05-22T10:27:54.354Z,34.75
2023-05-22T10:28:54.323Z,34.15
2023-05-22T10:29:54.312Z,34.99
2023-05-22T10:30:54.346Z,35.13
2023-05-22T10:31:54.297Z,35.73
2023-05-22T10:32:54.348Z,36.42
2023-05-22T10:33:54.319Z,36.45
2023-05-22T10:34:54.281Z,36.61
2023-05-22T10:35:54.259Z,37.23
2023-05-22T10:36:56.117Z,36.60
2023-05-22T10:37:54.286Z,38.81
2023-05-22T10:38:54.247Z,38.71
2023-05-22T10:39:54.275Z,38.72
2023-05-22T10:40:54.241Z,40.39
2023-05-22T10:41:54.218Z,39.55
2023-05-22T10:42:54.250Z,36.84
2023-05-22T10:43:54.207Z,36.41
2023-05-22T10:44:54.209Z,35.78
2023-05-22T10:45:54.291Z,37.23
2023-05-22T10:46:54.207Z,35.02
2023-05-22T10:47:54.204Z,35.11
2023-05-22T10:48:54.190Z,36.17
2023-05-22T10:49:54.177Z,35.91
2023-05-22T10:50:54.151Z,34.21
2023-05-22T10:51:54.225Z,33.78
2023-05-22T10:52:54.175Z,33.46
2023-05-22T10:53:54.225Z,34.26
2023-05-22T10:54:54.198Z,31.65
2023-05-22T10:55:54.123Z,33.72
2023-05-22T10:56:54.130Z,35.82
2023-05-22T10:57:54.189Z,36.19
2023-05-22T10:58:54.098Z,36.04
2023-05-22T10:59:54.099Z,32.82
2023-05-22T11:00:54.173Z,33.68
2023-05-22T11:01:54.106Z,35.77
2023-05-22T11:02:55.261Z,35.35
2023-05-22T11:03:54.199Z,34.88
2023-05-22T11:04:54.077Z,33.92
2023-05-22T11:05:54.085Z,32.57
2023-05-22T11:06:54.228Z,31.91
2023-05-22T11:07:54.095Z,33.36
2023-05-22T11:08:54.073Z,32.44
2023-05-22T11:09:54.030Z,31.47
2023-05-22T11:10:54.179Z,31.18
2023-05-22T11:11:54.060Z,31.95
2023-05-22T11:12:54.009Z,32.75
2023-05-22T11:13:54.045Z,32.97
2023-05-22T11:14:53.984Z,32.50
2023-05-22T11:15:54.010Z,32.98
2023-05-22T11:16:54.018Z,32.48
2023-05-22T11:17:54.018Z,32.86
2023-05-22T11:18:54.038Z,30.87
2023-05-22T11:19:54.019Z,31.63
2023-05-22T11:20:53.942Z,32.20
2023-05-22T11:21:53.948Z,31.97
2023-05-22T11:22:53.937Z,31.48
2023-05-22T11:23:53.934Z,33.53
2023-05-22T11:24:54.004Z,30.69
2023-05-22T11:25:53.908Z,31.31
2023-05-22T11:26:53.906Z,32.70
2023-05-22T11:27:53.927Z,29.77
2023-05-22T11:28:53.916Z,32.15
2023-05-22T11:29:53.889Z,30.19
2023-05-22T11:30:54.058Z,30.68
2023-05-22T11:31:53.873Z,29.00
2023-05-22T11:32:53.880Z,31.57
2023-05-22T11:33:53.905Z,31.53
2023-05-22T11:34:53.861Z,31.08
2023-05-22T11:35:53.847Z,33.29
2023-05-22T11:36:53.883Z,33.88
2023-05-22T11:37:53.834Z,32.03
2023-05-22T11:38:53.804Z,32.50
2023-05-22T11:39:53.930Z,33.79
2023-05-22T11:40:53.822Z,33.26
2023-05-22T11:41:53.804Z,31.41
2023-05-22T11:42:53.820Z,30.62
2023-05-22T11:43:53.792Z,32.28
2023-05-22T11:44:53.849Z,31.05
2023-05-22T11:45:53.829Z,30.19
2023-05-22T11:46:53.994Z,30.03
2023-05-22T11:47:53.810Z,29.73
2023-05-22T11:48:53.764Z,32.18
2023-05-22T11:49:53.801Z,31.64
2023-05-22T11:50:53.840Z,31.18
2023-05-22T11:51:53.802Z,33.42
2023-05-22T11:52:53.830Z,33.02
2023-05-22T11:53:53.869Z,31.08
2023-05-22T11:54:53.726Z,32.69
2023-05-22T11:55:53.746Z,33.35
2023-05-22T11:56:53.726Z,35.27
2023-05-22T11:57:53.756Z,34.66
2023-05-22T11:58:53.685Z,32.46
2023-05-22T11:59:53.679Z,30.68
2023-05-22T12:00:53.735Z,29.26
2023-05-22T12:01:53.656Z,28.50
2023-05-22T12:02:53.739Z,29.11
2023-05-22T12:03:53.792Z,30.11
2023-05-22T12:04:53.674Z,30.14
2023-05-22T12:05:53.641Z,31.63
2023-05-22T12:06:53.793Z,32.37
2023-05-22T12:07:53.612Z,32.62
2023-05-22T12:08:53.616Z,31.29
2023-05-22T12:09:53.755Z,31.49
2023-05-22T12:10:53.618Z,31.95
2023-05-22T12:11:53.571Z,31.97
2023-05-22T12:12:53.722Z,31.09
2023-05-22T12:13:53.572Z,32.23
2023-05-22T12:14:53.555Z,29.84
2023-05-22T12:15:53.799Z,28.65
2023-05-22T12:16:53.680Z,28.09
2023-05-22T12:17:53.614Z,28.15
2023-05-22T12:18:53.785Z,27.04
2023-05-22T12:19:53.516Z,26.84
2023-05-22T12:20:53.521Z,26.79
2023-05-22T12:21:53.754Z,27.02
2023-05-22T12:22:53.498Z,26.89
2023-05-22T12:23:53.487Z,28.47
2023-05-22T12:24:53.597Z,30.40
2023-05-22T12:25:53.473Z,30.00
2023-05-22T12:26:53.494Z,32.60
2023-05-22T12:27:53.671Z,34.59
2023-05-22T12:28:53.458Z,36.98
2023-05-22T12:29:53.457Z,37.95
2023-05-22T12:30:53.438Z,38.30
2023-05-22T12:31:53.513Z,38.28
2023-05-22T12:32:53.445Z,37.92
2023-05-22T12:33:53.426Z,38.03
2023-05-22T12:34:53.404Z,40.64
2023-05-22T12:35:53.406Z,40.40
2023-05-22T12:36:53.388Z,42.47
2023-05-22T12:37:53.389Z,39.33
2023-05-22T12:38:53.371Z,38.70
2023-05-22T12:39:53.350Z,38.18
2023-05-22T12:40:53.349Z,38.73
2023-05-22T12:41:53.332Z,37.73
2023-05-22T12:42:53.340Z,36.19
2023-05-22T12:43:53.300Z,36.80
2023-05-22T12:44:53.296Z,37.80
2023-05-22T12:45:53.322Z,37.56
2023-05-22T12:46:53.351Z,39.32
2023-05-22T12:47:53.294Z,41.51
2023-05-22T12:48:53.239Z,39.43
2023-05-22T12:49:53.269Z,39.04
2023-05-22T12:50:53.218Z,40.40
2023-05-22T12:51:53.230Z,43.14